Time;durP1;ratioP1;P1;durP2;ratioP2;P2;SDS_P1;SDS_P2;PMS_P1;PMS_P2;Temp;Humidity;BMP_temperature;BMP_pressure;BME280_temperature;BME280_humidity;BME280_pressure;Samples;Min_cycle;Max_cycle;Signal;HPM_P1;HPM_P2
2021/06/07 00:26:40;;;;;;;12.95;5.45;;;;;;;;;;5160458;27;20763;-69
2021/06/07 00:29:07;;;;;;;17.67;4.93;;;;;;;;;;5139156;27;20077;-70
2021/06/07 00:31:33;;;;;;;14.85;5.55;;;;;;;;;;5159039;27;20074;-69
2021/06/07 00:33:59;;;;;;;14.25;5.00;;;;;;;;;;5159062;27;20113;-69
2021/06/07 00:36:26;;;;;;;17.33;4.82;;;;;;;;;;5159103;27;20693;-68
2021/06/07 00:38:52;;;;;;;10.30;4.00;;;;;;;;;;5139997;27;20086;-68
2021/06/07 00:41:18;;;;;;;13.88;4.37;;;;;;;;;;5105933;27;20090;-68
2021/06/07 00:43:44;;;;;;;5.37;3.90;;;;;;;;;;5158925;27;20105;-68
2021/06/07 00:46:10;;;;;;;5.82;3.37;;;;;;;;;;5106357;27;20091;-68
2021/06/07 00:48:36;;;;;;;5.18;3.72;;;;;;;;;;5123064;27;20108;-68
2021/06/07 00:51:08;;;;;;;8.32;3.62;;;;;;;;;;5106035;27;20181;-68
2021/06/07 00:53:34;;;;;;;8.40;3.62;;;;;;;;;;5106067;27;20066;-68
2021/06/07 00:56:05;;;;;;;7.60;3.60;;;;;;;;;;5140079;27;20117;-68
2021/06/07 00:58:46;;;;;;;5.32;3.50;;;;;;;;;;5122999;27;20169;-68
2021/06/07 01:01:13;;;;;;;6.80;3.72;;;;;;;;;;5122645;27;20159;-68
2021/06/07 01:03:40;;;;;;;7.35;3.90;;;;;;;;;;5123292;27;20117;-69
2021/06/07 01:06:06;;;;;;;7.20;3.70;;;;;;;;;;5122848;27;20097;-69
2021/06/07 01:08:33;;;;;;;7.90;3.97;;;;;;;;;;5123335;27;20501;-69
2021/06/07 01:10:59;;;;;;;6.28;3.62;;;;;;;;;;5123844;27;20066;-68
2021/06/07 01:13:24;;;;;;;11.65;5.25;;;;;;;;;;5141473;27;20496;-68
2021/06/07 01:15:51;;;;;;;8.40;5.22;;;;;;;;;;5141615;27;20090;-69
2021/06/07 01:18:20;;;;;;;9.85;4.75;;;;;;;;;;5124335;27;20160;-69
2021/06/07 01:20:46;;;;;;;8.35;4.45;;;;;;;;;;5107733;27;20175;-69
2021/06/07 01:23:12;;;;;;;9.25;4.70;;;;;;;;;;5158637;27;20506;-69
2021/06/07 01:25:40;;;;;;;8.23;5.47;;;;;;;;;;5142572;27;20094;-71
2021/06/07 01:28:07;;;;;;;7.57;4.82;;;;;;;;;;5161762;27;20429;-71
2021/06/07 01:30:35;;;;;;;9.13;5.05;;;;;;;;;;5179351;27;20424;-71
2021/06/07 01:33:03;;;;;;;12.18;5.47;;;;;;;;;;5179651;27;20077;-71
2021/06/07 01:35:28;;;;;;;10.25;4.62;;;;;;;;;;5181002;27;20505;-71
2021/06/07 01:37:55;;;;;;;15.98;6.18;;;;;;;;;;5179018;27;20074;-71
2021/06/07 01:40:25;;;;;;;12.57;5.95;;;;;;;;;;5162286;27;20066;-71
2021/06/07 01:42:51;;;;;;;15.63;5.00;;;;;;;;;;5179516;27;20461;-71
2021/06/07 01:45:19;;;;;;;12.50;5.15;;;;;;;;;;5161963;27;20096;-71
2021/06/07 01:47:45;;;;;;;15.23;5.75;;;;;;;;;;5179278;27;20554;-71
2021/06/07 01:50:11;;;;;;;11.68;6.10;;;;;;;;;;5179299;27;20089;-71
2021/06/07 01:52:43;;;;;;;12.20;6.00;;;;;;;;;;5179110;27;20101;-71
2021/06/07 01:55:12;;;;;;;10.43;6.43;;;;;;;;;;5181318;27;20054;-71
2021/06/07 01:57:39;;;;;;;17.17;6.37;;;;;;;;;;5179250;27;20394;-71
2021/06/07 02:00:10;;;;;;;16.00;5.72;;;;;;;;;;5179198;27;20195;-71
2021/06/07 02:02:42;;;;;;;14.55;8.88;;;;;;;;;;5161775;27;20089;-71
2021/06/07 02:05:08;;;;;;;19.62;6.55;;;;;;;;;;5144811;27;20174;-71
2021/06/07 02:07:34;;;;;;;13.70;6.45;;;;;;;;;;5161540;27;20081;-71
2021/06/07 02:10:00;;;;;;;9.63;6.05;;;;;;;;;;5179303;27;20468;-71
2021/06/07 02:12:26;;;;;;;11.12;5.32;;;;;;;;;;5179223;27;20112;-71
2021/06/07 02:14:52;;;;;;;10.02;5.20;;;;;;;;;;5179016;27;20104;-71
2021/06/07 02:17:17;;;;;;;9.07;4.00;;;;;;;;;;5179301;27;20105;-71
2021/06/07 02:19:47;;;;;;;7.50;4.30;;;;;;;;;;5178874;27;20516;-71
2021/06/07 02:22:13;;;;;;;11.10;5.00;;;;;;;;;;5178833;27;20066;-71
2021/06/07 02:24:39;;;;;;;11.90;3.78;;;;;;;;;;5144463;27;20085;-71
2021/06/07 02:27:05;;;;;;;8.30;3.70;;;;;;;;;;5178808;27;20079;-71
2021/06/07 02:29:31;;;;;;;7.25;3.75;;;;;;;;;;5180975;27;20089;-71
2021/06/07 02:31:57;;;;;;;11.65;4.12;;;;;;;;;;5178956;27;20100;-71
2021/06/07 02:34:23;;;;;;;13.35;4.57;;;;;;;;;;5162131;27;20101;-68
2021/06/07 02:36:49;;;;;;;6.57;4.10;;;;;;;;;;5180516;27;20425;-71
2021/06/07 02:39:15;;;;;;;8.27;4.45;;;;;;;;;;5179882;27;20585;-70
2021/06/07 02:41:42;;;;;;;7.65;4.03;;;;;;;;;;5178855;27;20109;-70
2021/06/07 02:44:08;;;;;;;7.55;4.37;;;;;;;;;;5186412;27;20078;-70
2021/06/07 02:46:34;;;;;;;12.13;5.20;;;;;;;;;;5202573;27;20074;-71
2021/06/07 02:49:00;;;;;;;9.15;4.40;;;;;;;;;;5186665;27;20096;-70
2021/06/07 02:51:26;;;;;;;8.32;4.37;;;;;;;;;;5201738;27;20092;-70
2021/06/07 02:53:51;;;;;;;9.32;4.22;;;;;;;;;;5193089;27;20260;-70
2021/06/07 02:56:17;;;;;;;10.07;4.37;;;;;;;;;;5145304;27;20077;-72
2021/06/07 02:58:43;;;;;;;14.77;5.90;;;;;;;;;;5179140;27;20093;-77
2021/06/07 03:01:10;;;;;;;7.72;4.35;;;;;;;;;;5179121;27;20562;-73
2021/06/07 03:03:36;;;;;;;8.07;4.07;;;;;;;;;;5161290;27;20466;-71
2021/06/07 03:06:02;;;;;;;9.45;4.05;;;;;;;;;;5180647;27;20077;-71
2021/06/07 03:08:30;;;;;;;6.12;3.45;;;;;;;;;;5180598;27;20159;-71
2021/06/07 03:10:58;;;;;;;12.35;4.22;;;;;;;;;;5160550;27;20058;-71
2021/06/07 03:13:24;;;;;;;9.35;3.85;;;;;;;;;;5178593;27;20094;-71
2021/06/07 03:15:52;;;;;;;9.70;4.07;;;;;;;;;;5180310;27;20116;-71
2021/06/07 03:18:18;;;;;;;16.30;4.05;;;;;;;;;;5160550;27;20404;-71
2021/06/07 03:20:44;;;;;;;7.32;3.20;;;;;;;;;;5160576;27;20177;-72
2021/06/07 03:23:12;;;;;;;17.27;4.25;;;;;;;;;;5179888;27;20433;-70
2021/06/07 03:25:38;;;;;;;11.50;4.28;;;;;;;;;;5179694;27;20082;-69
2021/06/07 03:28:05;;;;;;;7.35;4.95;;;;;;;;;;5179367;27;20508;-74
2021/06/07 03:30:31;;;;;;;9.70;4.57;;;;;;;;;;5177732;27;20100;-73
2021/06/07 03:32:57;;;;;;;12.82;4.25;;;;;;;;;;5142808;27;20524;-74
2021/06/07 03:35:23;;;;;;;14.05;5.20;;;;;;;;;;5143532;27;20420;-73
2021/06/07 03:37:49;;;;;;;13.40;4.12;;;;;;;;;;5178189;27;20105;-71
2021/06/07 03:40:21;;;;;;;14.73;4.55;;;;;;;;;;5126366;27;20090;-72
2021/06/07 03:42:47;;;;;;;10.40;3.65;;;;;;;;;;5177682;27;20426;-71
2021/06/07 03:45:13;;;;;;;12.90;4.28;;;;;;;;;;5177684;27;20085;-71
2021/06/07 03:47:39;;;;;;;13.73;3.20;;;;;;;;;;5177784;27;20070;-70
2021/06/07 03:50:05;;;;;;;10.63;3.10;;;;;;;;;;5177786;27;20070;-71
2021/06/07 03:52:31;;;;;;;11.43;3.05;;;;;;;;;;5177406;27;20141;-73
2021/06/07 03:54:57;;;;;;;4.87;2.87;;;;;;;;;;5179411;27;20090;-72
2021/06/07 03:57:23;;;;;;;8.52;3.50;;;;;;;;;;5177291;27;20100;-71
2021/06/07 03:59:49;;;;;;;11.07;3.83;;;;;;;;;;5160348;27;20081;-71
2021/06/07 04:02:18;;;;;;;7.50;3.97;;;;;;;;;;5177324;27;20074;-71
2021/06/07 04:04:44;;;;;;;16.77;3.83;;;;;;;;;;5179043;27;20097;-72
2021/06/07 04:07:09;;;;;;;8.55;3.42;;;;;;;;;;5179087;27;20070;-72
2021/06/07 04:09:38;;;;;;;7.82;3.17;;;;;;;;;;5179101;27;20179;-72
2021/06/07 04:12:04;;;;;;;9.68;3.78;;;;;;;;;;5194880;27;20094;-72
2021/06/07 04:14:30;;;;;;;6.93;2.95;;;;;;;;;;5143042;27;20414;-73
2021/06/07 04:16:56;;;;;;;10.40;2.62;;;;;;;;;;5160115;27;20086;-73
2021/06/07 04:19:22;;;;;;;11.15;3.10;;;;;;;;;;5177444;27;20113;-72
2021/06/07 04:21:48;;;;;;;11.73;3.03;;;;;;;;;;5179322;27;20086;-71
2021/06/07 04:24:13;;;;;;;10.25;2.72;;;;;;;;;;5178312;27;20184;-71
2021/06/07 04:26:39;;;;;;;6.95;2.65;;;;;;;;;;5177023;27;20109;-71
2021/06/07 04:29:05;;;;;;;29.00;10.88;;;;;;;;;;5158516;27;20097;-71
2021/06/07 04:31:32;;;;;;;44.25;15.63;;;;;;;;;;5175941;27;20178;-71
2021/06/07 04:33:58;;;;;;;40.17;12.30;;;;;;;;;;5176176;27;20101;-71
2021/06/07 04:36:24;;;;;;;24.20;8.25;;;;;;;;;;5141331;27;20102;-71
2021/06/07 04:38:50;;;;;;;31.05;9.35;;;;;;;;;;5141327;27;20094;-71
2021/06/07 04:41:16;;;;;;;35.90;10.77;;;;;;;;;;5176445;27;20086;-71
2021/06/07 04:43:42;;;;;;;35.50;12.88;;;;;;;;;;5161612;27;20097;-71
2021/06/07 04:46:08;;;;;;;24.60;10.32;;;;;;;;;;5162271;27;20142;-71
2021/06/07 04:48:33;;;;;;;24.73;9.82;;;;;;;;;;5162223;27;20171;-71
2021/06/07 04:50:59;;;;;;;22.42;8.30;;;;;;;;;;5179720;27;20101;-71
2021/06/07 04:53:25;;;;;;;22.55;8.82;;;;;;;;;;5162132;27;20168;-71
2021/06/07 04:55:52;;;;;;;34.60;11.57;;;;;;;;;;5145007;27;20177;-71
2021/06/07 04:58:20;;;;;;;47.13;13.48;;;;;;;;;;5179711;27;20074;-71
2021/06/07 05:00:49;;;;;;;40.58;13.60;;;;;;;;;;5145276;27;20098;-71
2021/06/07 05:03:16;;;;;;;32.80;10.63;;;;;;;;;;5145505;27;20071;-71
2021/06/07 05:05:42;;;;;;;39.33;10.30;;;;;;;;;;5179956;27;20575;-71
2021/06/07 05:08:08;;;;;;;35.50;11.52;;;;;;;;;;5162138;27;20173;-71
2021/06/07 05:10:34;;;;;;;36.97;11.07;;;;;;;;;;5162219;27;20065;-71
2021/06/07 05:12:59;;;;;;;34.65;11.40;;;;;;;;;;5179531;27;20070;-71
2021/06/07 05:15:25;;;;;;;28.52;10.38;;;;;;;;;;5197035;27;20112;-72
2021/06/07 05:17:51;;;;;;;37.30;10.55;;;;;;;;;;5179340;27;20120;-71
2021/06/07 05:20:22;;;;;;;28.58;9.77;;;;;;;;;;5179635;27;20207;-71
2021/06/07 05:22:48;;;;;;;20.48;9.40;;;;;;;;;;5181163;27;20094;-71
2021/06/07 05:25:16;;;;;;;17.87;7.57;;;;;;;;;;5162329;27;20074;-71
2021/06/07 05:27:42;;;;;;;19.45;7.75;;;;;;;;;;5179167;27;20096;-71
2021/06/07 05:30:08;;;;;;;26.75;8.70;;;;;;;;;;5162352;27;20090;-71
2021/06/07 05:32:34;;;;;;;15.73;6.18;;;;;;;;;;5196822;27;20409;-71
2021/06/07 05:35:00;;;;;;;19.25;6.62;;;;;;;;;;5179680;27;20164;-71
2021/06/07 05:37:26;;;;;;;9.45;4.00;;;;;;;;;;5180932;27;20096;-71
2021/06/07 05:39:52;;;;;;;10.90;4.25;;;;;;;;;;5145003;27;20171;-71
2021/06/07 05:42:18;;;;;;;8.80;3.55;;;;;;;;;;5179248;27;20539;-71
2021/06/07 05:44:44;;;;;;;13.48;4.85;;;;;;;;;;5179610;27;20085;-71
2021/06/07 05:47:10;;;;;;;10.18;3.78;;;;;;;;;;5179124;27;20090;-71
2021/06/07 05:49:38;;;;;;;9.48;4.10;;;;;;;;;;5179215;27;20212;-71
2021/06/07 05:52:06;;;;;;;6.43;3.45;;;;;;;;;;5180855;27;20534;-71
2021/06/07 05:54:32;;;;;;;7.32;3.95;;;;;;;;;;5144046;27;20070;-71
2021/06/07 05:56:58;;;;;;;7.28;3.72;;;;;;;;;;5161887;27;20068;-71
2021/06/07 05:59:24;;;;;;;17.42;4.97;;;;;;;;;;5179147;27;20568;-71
2021/06/07 06:01:50;;;;;;;21.55;4.72;;;;;;;;;;5180656;27;20174;-71
2021/06/07 06:04:15;;;;;;;15.32;6.05;;;;;;;;;;5161604;27;20105;-71
2021/06/07 06:06:41;;;;;;;19.98;6.40;;;;;;;;;;5178770;27;20576;-72
2021/06/07 06:09:07;;;;;;;17.77;5.65;;;;;;;;;;5178936;27;20145;-70
2021/06/07 06:11:33;;;;;;;19.70;6.65;;;;;;;;;;5178785;27;20183;-71
2021/06/07 06:14:01;;;;;;;15.23;5.43;;;;;;;;;;5144525;27;20457;-71
2021/06/07 06:16:26;;;;;;;14.23;4.85;;;;;;;;;;5178866;27;20152;-71
2021/06/07 06:18:52;;;;;;;12.30;3.33;;;;;;;;;;5161345;27;20191;-71
2021/06/07 06:21:18;;;;;;;9.40;3.55;;;;;;;;;;5179024;27;20086;-72
2021/06/07 06:23:44;;;;;;;7.97;3.05;;;;;;;;;;5178815;27;20116;-72
2021/06/07 06:26:10;;;;;;;14.35;3.25;;;;;;;;;;5178985;27;20061;-72
2021/06/07 06:28:37;;;;;;;8.60;2.78;;;;;;;;;;5180219;27;20094;-72
2021/06/07 06:31:03;;;;;;;8.40;2.15;;;;;;;;;;5178945;27;20086;-72
2021/06/07 06:33:29;;;;;;;4.25;2.25;;;;;;;;;;5178953;27;20096;-72
2021/06/07 06:35:55;;;;;;;2.80;2.30;;;;;;;;;;5179116;27;20099;-72
2021/06/07 06:38:21;;;;;;;4.80;1.98;;;;;;;;;;5161252;27;20598;-72
2021/06/07 06:40:48;;;;;;;4.12;2.03;;;;;;;;;;5178791;27;20094;-72
2021/06/07 06:43:14;;;;;;;5.18;2.05;;;;;;;;;;5161842;27;20176;-72
2021/06/07 06:45:40;;;;;;;2.60;1.87;;;;;;;;;;5178732;27;20101;-72
2021/06/07 06:48:06;;;;;;;4.97;1.87;;;;;;;;;;5161633;27;20082;-72
2021/06/07 06:50:35;;;;;;;3.05;1.27;;;;;;;;;;5180438;27;20085;-72
2021/06/07 06:53:04;;;;;;;0.80;0.80;;;;;;;;;;5143913;27;20509;-70
2021/06/07 06:55:31;;;;;;;6.90;2.45;;;;;;;;;;5178904;27;20093;-71
2021/06/07 06:57:57;;;;;;;7.12;1.98;;;;;;;;;;5143970;27;20088;-71
2021/06/07 07:00:23;;;;;;;1.00;1.00;;;;;;;;;;5180310;27;20094;-72
2021/06/07 07:02:49;;;;;;;6.10;1.87;;;;;;;;;;5144181;27;20086;-71
2021/06/07 07:05:15;;;;;;;6.40;1.70;;;;;;;;;;5144122;27;20104;-71
2021/06/07 07:07:41;;;;;;;1.60;1.50;;;;;;;;;;5180201;27;20465;-71
2021/06/07 07:10:07;;;;;;;2.75;1.67;;;;;;;;;;5161055;27;20085;-71
2021/06/07 07:12:33;;;;;;;2.85;1.62;;;;;;;;;;5160900;27;20224;-71
2021/06/07 07:14:59;;;;;;;3.80;1.70;;;;;;;;;;5178805;27;20114;-71
2021/06/07 07:17:25;;;;;;;11.65;2.65;;;;;;;;;;5178487;27;20174;-71
2021/06/07 07:19:51;;;;;;;2.00;1.60;;;;;;;;;;5180466;27;20101;-71
2021/06/07 07:22:17;;;;;;;5.22;1.60;;;;;;;;;;5178467;27;20302;-70
2021/06/07 07:24:44;;;;;;;2.28;1.40;;;;;;;;;;5143566;27;20101;-71
2021/06/07 07:27:15;;;;;;;2.50;1.62;;;;;;;;;;5178660;27;20086;-71
2021/06/07 07:29:42;;;;;;;4.93;1.65;;;;;;;;;;5178222;27;20112;-70
2021/06/07 07:32:08;;;;;;;2.12;1.58;;;;;;;;;;5161087;27;20097;-70
2021/06/07 07:34:34;;;;;;;3.15;1.23;;;;;;;;;;5180479;27;20161;-71
2021/06/07 07:37:01;;;;;;;1.90;1.50;;;;;;;;;;5161351;27;20081;-70
2021/06/07 07:39:27;;;;;;;1.77;1.60;;;;;;;;;;5126632;27;20066;-71
2021/06/07 07:41:53;;;;;;;2.35;1.30;;;;;;;;;;5178347;27;20069;-71
2021/06/07 07:44:20;;;;;;;1.80;1.52;;;;;;;;;;5143817;27;20164;-71
2021/06/07 07:46:46;;;;;;;3.97;1.75;;;;;;;;;;5143838;27;20077;-71
2021/06/07 07:49:12;;;;;;;3.05;1.60;;;;;;;;;;5178881;27;20090;-71
2021/06/07 07:51:39;;;;;;;2.12;1.80;;;;;;;;;;5143823;27;20168;-71
2021/06/07 07:54:06;;;;;;;2.37;1.70;;;;;;;;;;5144031;27;20085;-71
2021/06/07 07:56:32;;;;;;;2.35;1.58;;;;;;;;;;5143748;27;20105;-71
2021/06/07 07:58:58;;;;;;;5.82;1.77;;;;;;;;;;5178622;27;20079;-71
2021/06/07 08:01:24;;;;;;;1.77;1.52;;;;;;;;;;5178628;27;20100;-71
2021/06/07 08:03:50;;;;;;;1.23;1.12;;;;;;;;;;5143761;27;20399;-71
2021/06/07 08:06:15;;;;;;;6.20;1.60;;;;;;;;;;5178280;27;20101;-71
2021/06/07 08:08:41;;;;;;;2.03;1.70;;;;;;;;;;5180135;27;20097;-71
2021/06/07 08:11:07;;;;;;;3.00;1.52;;;;;;;;;;5178253;27;20085;-71
2021/06/07 08:13:33;;;;;;;3.20;1.83;;;;;;;;;;5143679;27;20086;-71
2021/06/07 08:15:59;;;;;;;3.10;1.85;;;;;;;;;;5180413;27;20135;-71
2021/06/07 08:18:25;;;;;;;4.03;2.15;;;;;;;;;;5178435;27;20075;-71
2021/06/07 08:20:51;;;;;;;1.55;1.35;;;;;;;;;;5178535;27;20080;-71
2021/06/07 08:23:17;;;;;;;2.67;1.45;;;;;;;;;;5179914;27;20096;-71
2021/06/07 08:25:43;;;;;;;1.15;1.15;;;;;;;;;;5161281;27;20386;-71
2021/06/07 08:28:09;;;;;;;1.20;1.00;;;;;;;;;;5178041;27;20067;-71
2021/06/07 08:30:36;;;;;;;1.23;1.12;;;;;;;;;;5179793;27;20102;-71
2021/06/07 08:33:03;;;;;;;4.55;2.78;;;;;;;;;;5178267;27;20155;-71
2021/06/07 08:35:30;;;;;;;2.47;1.80;;;;;;;;;;5178252;27;20096;-71
2021/06/07 08:37:56;;;;;;;2.17;1.52;;;;;;;;;;5178113;27;20076;-71
2021/06/07 08:40:22;;;;;;;3.08;2.15;;;;;;;;;;5161137;27;20089;-71
2021/06/07 08:42:48;;;;;;;8.60;1.73;;;;;;;;;;5161340;27;20066;-71
2021/06/07 08:45:16;;;;;;;2.78;2.10;;;;;;;;;;5178222;27;20117;-71
2021/06/07 08:47:42;;;;;;;2.00;1.25;;;;;;;;;;5178171;27;20085;-71
2021/06/07 08:50:09;;;;;;;2.00;1.60;;;;;;;;;;5143833;27;20105;-72
2021/06/07 08:52:35;;;;;;;3.37;1.67;;;;;;;;;;5178005;27;20461;-71
2021/06/07 08:55:03;;;;;;;1.67;1.45;;;;;;;;;;5160807;27;20173;-71
2021/06/07 08:57:29;;;;;;;2.65;1.67;;;;;;;;;;5177995;27;20063;-71
2021/06/07 08:59:55;;;;;;;4.35;1.70;;;;;;;;;;5160971;27;20093;-71
2021/06/07 09:02:38;;;;;;;1.83;1.58;;;;;;;;;;5178059;27;20093;-71
2021/06/07 09:05:05;;;;;;;1.67;1.58;;;;;;;;;;5161032;27;20098;-71
2021/06/07 09:07:31;;;;;;;1.48;1.37;;;;;;;;;;5143658;27;20101;-71
2021/06/07 09:10:11;;;;;;;2.50;1.60;;;;;;;;;;5143516;27;20098;-71
2021/06/07 09:12:44;;;;;;;1.95;1.40;;;;;;;;;;5161155;27;20591;-71
2021/06/07 09:15:27;;;;;;;2.90;1.30;;;;;;;;;;5161604;27;20481;-71
2021/06/07 09:17:54;;;;;;;3.92;1.60;;;;;;;;;;5177643;27;20180;-71
2021/06/07 09:20:20;;;;;;;4.40;1.50;;;;;;;;;;5143576;27;20083;-70
2021/06/07 09:22:57;;;;;;;2.33;1.35;;;;;;;;;;5177944;27;20423;-71
2021/06/07 09:25:24;;;;;;;2.28;1.90;;;;;;;;;;5178357;27;20446;-71
2021/06/07 09:28:05;;;;;;;1.62;1.52;;;;;;;;;;5179452;27;20466;-71
2021/06/07 09:30:33;;;;;;;3.22;1.83;;;;;;;;;;5180370;27;20476;-71
2021/06/07 09:33:15;;;;;;;1.50;1.40;;;;;;;;;;5161837;27;20060;-71
2021/06/07 09:35:42;;;;;;;1.17;1.17;;;;;;;;;;5179536;27;20073;-71
2021/06/07 09:38:08;;;;;;;0.82;0.82;;;;;;;;;;5179282;27;20297;-71
2021/06/07 09:40:34;;;;;;;2.15;1.20;;;;;;;;;;5180901;27;20437;-71
2021/06/07 09:43:01;;;;;;;1.77;1.42;;;;;;;;;;5179144;27;20058;-71
2021/06/07 09:45:54;;;;;;;0.90;0.90;;;;;;;;;;5180877;27;20058;-71
2021/06/07 09:48:20;;;;;;;4.05;1.75;;;;;;;;;;5164206;27;20067;-71
2021/06/07 09:50:56;;;;;;;1.60;1.50;;;;;;;;;;5179222;27;20108;-71
2021/06/07 09:53:41;;;;;;;1.50;1.40;;;;;;;;;;5179001;27;20244;-71
2021/06/07 09:56:07;;;;;;;1.60;1.50;;;;;;;;;;5179857;27;20216;-71
2021/06/07 09:58:34;;;;;;;1.40;1.30;;;;;;;;;;5144939;27;20058;-71
2021/06/07 10:01:00;;;;;;;2.08;1.55;;;;;;;;;;5144753;27;20088;-71
2021/06/07 10:03:25;;;;;;;3.42;2.00;;;;;;;;;;5179169;27;20109;-71
2021/06/07 10:06:00;;;;;;;1.83;1.55;;;;;;;;;;5161672;27;20329;-71
2021/06/07 10:08:40;;;;;;;5.77;2.33;;;;;;;;;;5178983;27;20086;-71
2021/06/07 10:11:17;;;;;;;4.03;1.85;;;;;;;;;;5163283;27;20085;-71
2021/06/07 10:13:43;;;;;;;6.53;1.90;;;;;;;;;;5145289;27;20073;-71
2021/06/07 10:16:09;;;;;;;3.03;1.98;;;;;;;;;;5144431;27;20274;-71
2021/06/07 10:18:35;;;;;;;2.67;1.65;;;;;;;;;;5179006;27;20074;-71
2021/06/07 10:21:02;;;;;;;2.15;1.70;;;;;;;;;;5179255;27;20205;-71
2021/06/07 10:23:29;;;;;;;3.25;1.40;;;;;;;;;;5179627;27;20175;-70
2021/06/07 10:25:57;;;;;;;3.47;1.55;;;;;;;;;;5161690;27;20088;-71
2021/06/07 10:28:27;;;;;;;6.55;3.45;;;;;;;;;;5180533;27;20458;-71
2021/06/07 10:30:55;;;;;;;8.30;2.45;;;;;;;;;;5144919;27;20094;-70
2021/06/07 10:33:36;;;;;;;7.55;2.37;;;;;;;;;;5178923;27;20466;-70
2021/06/07 10:36:27;;;;;;;3.60;1.87;;;;;;;;;;5179104;27;20094;-70
2021/06/07 10:39:13;;;;;;;4.82;1.92;;;;;;;;;;5180963;27;20156;-70
2021/06/07 10:41:46;;;;;;;9.85;2.45;;;;;;;;;;5165882;27;20066;-71
2021/06/07 10:44:12;;;;;;;3.53;1.77;;;;;;;;;;5179185;27;20061;-70
2021/06/07 10:46:40;;;;;;;3.80;2.15;;;;;;;;;;5178647;27;20113;-71
2021/06/07 10:49:44;;;;;;;3.83;2.30;;;;;;;;;;5178525;27;20075;-71
2021/06/07 10:52:22;;;;;;;1.45;1.35;;;;;;;;;;5180041;27;20225;-71
2021/06/07 10:54:58;;;;;;;6.85;1.70;;;;;;;;;;5161535;27;20409;-71
2021/06/07 10:57:46;;;;;;;3.53;2.28;;;;;;;;;;5178626;27;20068;-71
2021/06/07 11:00:39;;;;;;;2.75;2.17;;;;;;;;;;5178644;27;20081;-70
2021/06/07 11:03:16;;;;;;;8.18;2.47;;;;;;;;;;5178873;27;20070;-71
2021/06/07 11:05:43;;;;;;;7.20;3.37;;;;;;;;;;5180596;27;20080;-71
2021/06/07 11:08:22;;;;;;;5.45;2.92;;;;;;;;;;5144144;27;20066;-71
2021/06/07 11:11:04;;;;;;;6.37;2.30;;;;;;;;;;5127912;27;20176;-71
2021/06/07 11:13:32;;;;;;;8.55;3.12;;;;;;;;;;5178546;27;20157;-70
2021/06/07 11:16:02;;;;;;;15.57;2.08;;;;;;;;;;5178651;27;20164;-71
2021/06/07 11:18:32;;;;;;;2.35;1.92;;;;;;;;;;5178110;27;20089;-70
2021/06/07 11:21:07;;;;;;;1.62;1.52;;;;;;;;;;5143816;27;20588;-71
2021/06/07 11:23:40;;;;;;;;;;;;;;;;;;5180289;27;20424;-71
2021/06/07 11:26:10;;;;;;;4.62;1.92;;;;;;;;;;5178333;27;20072;-71
2021/06/07 11:28:45;;;;;;;4.87;2.65;;;;;;;;;;5161383;27;20125;-71
2021/06/07 11:31:14;;;;;;;9.38;2.17;;;;;;;;;;5178634;27;20149;-71
2021/06/07 11:34:00;;;;;;;10.43;1.70;;;;;;;;;;5179647;27;20571;-71
2021/06/07 11:36:46;;;;;;;4.97;2.95;;;;;;;;;;5178645;27;20508;-70
2021/06/07 11:39:20;;;;;;;2.03;1.65;;;;;;;;;;5180100;27;20078;-71
2021/06/07 11:41:51;;;;;;;6.32;1.83;;;;;;;;;;5178113;27;20600;-71
2021/06/07 11:44:17;;;;;;;2.00;1.60;;;;;;;;;;5178211;27;20065;-71
2021/06/07 11:46:42;;;;;;;3.55;1.77;;;;;;;;;;5178386;27;20122;-71
2021/06/07 11:49:13;;;;;;;3.25;1.30;;;;;;;;;;5178268;27;20175;-71
2021/06/07 11:51:40;;;;;;;2.05;1.48;;;;;;;;;;5177989;27;20086;-71
2021/06/07 11:54:24;;;;;;;3.42;1.77;;;;;;;;;;5178282;27;20172;-71
2021/06/07 11:56:58;;;;;;;1.83;1.50;;;;;;;;;;5178207;27;20106;-71
2021/06/07 11:59:31;;;;;;;1.60;1.50;;;;;;;;;;5179944;27;20101;-71
2021/06/07 12:01:58;;;;;;;3.05;1.25;;;;;;;;;;5178069;27;20243;-71
2021/06/07 12:04:24;;;;;;;2.25;1.65;;;;;;;;;;5143625;27;20105;-71
2021/06/07 12:06:50;;;;;;;2.47;1.50;;;;;;;;;;5179732;27;20102;-71
2021/06/07 12:09:19;;;;;;;3.45;1.65;;;;;;;;;;5160762;27;20082;-71
2021/06/07 12:11:45;;;;;;;2.70;1.65;;;;;;;;;;5177967;27;20089;-71
2021/06/07 12:14:11;;;;;;;2.30;1.67;;;;;;;;;;5178066;27;20473;-71
2021/06/07 12:16:37;;;;;;;2.55;1.85;;;;;;;;;;5178206;27;20065;-71
2021/06/07 12:19:09;;;;;;;7.22;1.60;;;;;;;;;;5143658;27;20070;-71
2021/06/07 12:21:35;;;;;;;6.18;1.70;;;;;;;;;;5160957;27;20080;-71
2021/06/07 12:24:09;;;;;;;2.28;1.48;;;;;;;;;;5178094;27;20157;-71
2021/06/07 12:29:28;;;;;;;4.20;1.20;;;;;;;;;;5178149;27;20077;-70
2021/06/07 12:32:13;;;;;;;3.67;1.80;;;;;;;;;;5160351;27;20081;-71
2021/06/07 12:35:16;;;;;;;2.40;1.35;;;;;;;;;;5178307;27;20090;-70
2021/06/07 12:37:53;;;;;;;3.53;1.60;;;;;;;;;;5179748;27;20108;-71
2021/06/07 12:40:19;;;;;;;3.42;1.65;;;;;;;;;;5160991;27;20228;-72
2021/06/07 12:42:47;;;;;;;2.30;1.62;;;;;;;;;;5178151;27;20076;-71
2021/06/07 12:45:14;;;;;;;1.95;1.60;;;;;;;;;;5178152;27;20065;-71
2021/06/07 12:47:40;;;;;;;1.30;1.20;;;;;;;;;;5161000;27;20092;-71
2021/06/07 12:50:21;;;;;;;4.37;1.60;;;;;;;;;;5161076;27;20485;-72
2021/06/07 12:52:49;;;;;;;4.07;1.67;;;;;;;;;;5195845;27;20062;-71
2021/06/07 12:55:17;;;;;;;3.22;1.80;;;;;;;;;;5143914;27;20417;-72
2021/06/07 12:57:44;;;;;;;3.75;2.03;;;;;;;;;;5179825;27;20058;-71
2021/06/07 13:00:22;;;;;;;3.17;1.58;;;;;;;;;;5160810;27;20086;-71
2021/06/07 13:02:48;;;;;;;2.47;1.90;;;;;;;;;;5178099;27;20066;-71
2021/06/07 13:05:32;;;;;;;1.70;1.60;;;;;;;;;;5180949;27;20464;-72
2021/06/07 13:08:14;;;;;;;2.80;1.77;;;;;;;;;;5179586;27;20398;-71
2021/06/07 13:10:42;;;;;;;1.92;1.62;;;;;;;;;;5181131;27;20093;-71
2021/06/07 13:13:08;;;;;;;3.10;1.77;;;;;;;;;;5179637;27;20100;-71
2021/06/07 13:15:34;;;;;;;3.70;1.75;;;;;;;;;;5179780;27;20078;-72
2021/06/07 13:18:05;;;;;;;2.00;1.65;;;;;;;;;;5161997;27;20090;-72
2021/06/07 13:20:32;;;;;;;3.67;1.58;;;;;;;;;;5181025;27;20493;-72
2021/06/07 13:22:58;;;;;;;4.53;2.03;;;;;;;;;;5179301;27;20597;-72
2021/06/07 13:25:29;;;;;;;5.12;1.80;;;;;;;;;;5179395;27;20148;-72
2021/06/07 13:28:14;;;;;;;3.67;2.33;;;;;;;;;;5179224;27;20109;-72
2021/06/07 13:30:40;;;;;;;3.75;1.62;;;;;;;;;;5179134;27;20086;-70
2021/06/07 13:33:07;;;;;;;2.67;1.55;;;;;;;;;;5179111;27;20179;-70
2021/06/07 13:35:33;;;;;;;1.98;1.70;;;;;;;;;;5144901;27;20456;-70
2021/06/07 13:37:59;;;;;;;3.10;1.70;;;;;;;;;;5180743;27;20114;-71
2021/06/07 13:40:26;;;;;;;6.62;2.15;;;;;;;;;;5179468;27;20521;-71
2021/06/07 13:43:06;;;;;;;2.03;1.37;;;;;;;;;;5144701;27;20492;-71
2021/06/07 13:45:37;;;;;;;4.22;1.90;;;;;;;;;;5196997;27;20500;-71
2021/06/07 13:48:22;;;;;;;5.07;1.85;;;;;;;;;;5179447;27;20063;-71
2021/06/07 13:50:51;;;;;;;1.95;1.50;;;;;;;;;;5146143;27;20078;-70
2021/06/07 13:53:17;;;;;;;1.70;1.60;;;;;;;;;;5179417;27;20062;-71
2021/06/07 13:55:45;;;;;;;2.62;1.73;;;;;;;;;;5180834;27;20077;-71
2021/06/07 13:58:15;;;;;;;4.57;1.67;;;;;;;;;;5179127;27;20104;-71
2021/06/07 14:00:57;;;;;;;5.25;1.75;;;;;;;;;;5179458;27;20082;-71
2021/06/07 14:03:29;;;;;;;3.08;1.70;;;;;;;;;;5163716;27;20062;-70
2021/06/07 14:05:56;;;;;;;3.00;2.35;;;;;;;;;;5179476;27;20104;-70
2021/06/07 14:08:32;;;;;;;2.75;1.75;;;;;;;;;;5144755;27;20097;-70
2021/06/07 14:11:03;;;;;;;6.72;1.70;;;;;;;;;;5179402;27;20076;-71
2021/06/07 14:13:29;;;;;;;8.70;2.00;;;;;;;;;;5179279;27;20171;-71
2021/06/07 14:15:55;;;;;;;6.70;2.55;;;;;;;;;;5180489;27;20099;-69
2021/06/07 14:18:21;;;;;;;2.08;1.73;;;;;;;;;;5178335;27;20124;-70
2021/06/07 14:20:48;;;;;;;2.45;1.95;;;;;;;;;;5161619;27;20087;-70
2021/06/07 14:26:11;;;;;;;3.70;1.87;;;;;;;;;;5164772;27;20069;-70
2021/06/07 14:28:37;;;;;;;2.00;1.60;;;;;;;;;;5161691;27;20478;-71
2021/06/07 14:31:03;;;;;;;2.40;1.70;;;;;;;;;;5178858;27;20489;-70
2021/06/07 14:33:29;;;;;;;2.62;2.03;;;;;;;;;;5179201;27;20085;-69
2021/06/07 14:35:55;;;;;;;1.60;1.50;;;;;;;;;;5161640;27;20165;-71
2021/06/07 14:38:21;;;;;;;2.80;1.55;;;;;;;;;;5161336;27;20513;-72
2021/06/07 14:40:55;;;;;;;1.98;1.77;;;;;;;;;;5180601;27;20101;-71
2021/06/07 14:43:21;;;;;;;6.65;1.58;;;;;;;;;;5180700;27;20090;-69
2021/06/07 14:45:47;;;;;;;3.60;1.70;;;;;;;;;;5178791;27;20086;-69
2021/06/07 14:48:13;;;;;;;4.93;2.10;;;;;;;;;;5178662;27;20165;-69
2021/06/07 14:50:40;;;;;;;4.30;1.55;;;;;;;;;;5180555;27;20523;-69
2021/06/07 14:53:06;;;;;;;2.22;1.52;;;;;;;;;;5178985;27;20085;-69
2021/06/07 14:55:32;;;;;;;2.33;1.67;;;;;;;;;;5180900;27;20401;-69
2021/06/07 14:57:58;;;;;;;4.12;2.05;;;;;;;;;;5144141;27;20566;-69
2021/06/07 15:00:24;;;;;;;4.05;1.58;;;;;;;;;;5180827;27;20088;-69
2021/06/07 15:02:52;;;;;;;5.22;2.30;;;;;;;;;;5180461;27;20081;-69
2021/06/07 15:05:18;;;;;;;9.55;1.98;;;;;;;;;;5161723;27;20102;-71
2021/06/07 15:07:44;;;;;;;6.85;2.12;;;;;;;;;;5143731;27;20181;-70
2021/06/07 15:10:10;;;;;;;4.18;1.90;;;;;;;;;;5196376;27;20192;-69
2021/06/07 15:12:36;;;;;;;13.05;2.15;;;;;;;;;;5180121;27;20175;-69
2021/06/07 15:15:03;;;;;;;7.10;2.20;;;;;;;;;;5180385;27;20587;-69
2021/06/07 15:17:29;;;;;;;6.40;2.30;;;;;;;;;;5180231;27;20508;-70